OAL929 FOOL-HRYR
Flight info
| Callsign | OAL929 |
|---|---|
| Flight time | 3h 3m |
| Altitude | 37000 |
| Route | NEBEX UT143 KGI UB531 RANAG |
| Aircraft | B738/M-V/N |
Departure
| Time | 2026-04-26 16:02 |
|---|---|
| Airport | Libreville Leon M'ba International Airport (FOOL) |
Arrival
| Time | 2026-04-26 19:05 |
|---|---|
| Airport | Kigali International Airport (HRYR) |
| Time | Latitude | Longitude | Altitude | Speed | Heading |
|---|---|---|---|---|---|
| 2026-04-26 15:53 | 0.46508 | 9.40711 | 38 ft | 0 kts | 77° |
| 2026-04-26 16:00 | 0.46522 | 9.40727 | 36 ft | 17 kts | 33° |
| 2026-04-26 16:00 | 0.46670 | 9.40720 | 38 ft | 22 kts | 353° |
| 2026-04-26 16:00 | 0.46816 | 9.40673 | 38 ft | 22 kts | 334° |
| 2026-04-26 16:00 | 0.46949 | 9.40608 | 38 ft | 21 kts | 333° |
| 2026-04-26 16:01 | 0.47044 | 9.40626 | 38 ft | 0 kts | 67° |
| 2026-04-26 16:01 | 0.47030 | 9.40665 | 37 ft | 26 kts | 134° |
| 2026-04-26 16:02 | 0.46604 | 9.40875 | 38 ft | 109 kts | 155° |
| 2026-04-26 16:02 | 0.45712 | 9.41306 | 45 ft | 177 kts | 154° |
| 2026-04-26 16:02 | 0.44552 | 9.41863 | 834 ft | 181 kts | 154° |
| 2026-04-26 16:02 | 0.43803 | 9.42285 | 1384 ft | 187 kts | 142° |
| 2026-04-26 16:03 | 0.42598 | 9.43666 | 2182 ft | 219 kts | 118° |
| 2026-04-26 16:03 | 0.42080 | 9.45174 | 2370 ft | 242 kts | 97° |
| 2026-04-26 16:03 | 0.42170 | 9.46919 | 2635 ft | 262 kts | 73° |
| 2026-04-26 16:03 | 0.42871 | 9.48600 | 3253 ft | 269 kts | 62° |
| 2026-04-26 16:04 | 0.43752 | 9.50256 | 4062 ft | 271 kts | 60° |
| 2026-04-26 16:04 | 0.44635 | 9.51933 | 4813 ft | 275 kts | 62° |
| 2026-04-26 16:04 | 0.45500 | 9.53658 | 5507 ft | 280 kts | 63° |
| 2026-04-26 16:04 | 0.46348 | 9.55408 | 5805 ft | 281 kts | 63° |
| 2026-04-26 16:05 | 0.47197 | 9.57192 | 5885 ft | 287 kts | 63° |
| 2026-04-26 16:05 | 0.48047 | 9.58989 | 5895 ft | 285 kts | 64° |
| 2026-04-26 16:05 | 0.48542 | 9.60895 | 5886 ft | 287 kts | 87° |
| 2026-04-26 16:05 | 0.48569 | 9.62883 | 6411 ft | 287 kts | 87° |
| 2026-04-26 16:06 | 0.48655 | 9.64875 | 7155 ft | 287 kts | 86° |
| 2026-04-26 16:06 | 0.48766 | 9.66879 | 7904 ft | 289 kts | 85° |
| 2026-04-26 16:06 | 0.48881 | 9.68892 | 8636 ft | 291 kts | 85° |
| 2026-04-26 16:06 | 0.48996 | 9.70919 | 9358 ft | 294 kts | 85° |
| 2026-04-26 16:07 | 0.49111 | 9.72962 | 10063 ft | 296 kts | 85° |
| 2026-04-26 16:07 | 0.49229 | 9.75054 | 10430 ft | 312 kts | 85° |
| 2026-04-26 16:07 | 0.49357 | 9.77307 | 10552 ft | 334 kts | 85° |
| 2026-04-26 16:07 | 0.49491 | 9.79691 | 10702 ft | 354 kts | 86° |
| 2026-04-26 16:08 | 0.49633 | 9.82209 | 10837 ft | 372 kts | 86° |
| 2026-04-26 16:08 | 0.49729 | 9.83934 | 11047 ft | 378 kts | 86° |
| 2026-04-26 16:08 | 0.49925 | 9.87466 | 11784 ft | 382 kts | 86° |
| 2026-04-26 16:08 | 0.50072 | 9.90116 | 12370 ft | 383 kts | 86° |
| 2026-04-26 16:09 | 0.50220 | 9.92788 | 12876 ft | 387 kts | 86° |
| 2026-04-26 16:09 | 0.50370 | 9.95486 | 13373 ft | 391 kts | 86° |
| 2026-04-26 16:09 | 0.50521 | 9.98203 | 13881 ft | 393 kts | 86° |
| 2026-04-26 16:09 | 0.50673 | 10.00947 | 14336 ft | 396 kts | 86° |
| 2026-04-26 16:10 | 0.50825 | 10.03678 | 14782 ft | 398 kts | 86° |
| 2026-04-26 16:10 | 0.50978 | 10.06429 | 15215 ft | 401 kts | 86° |
| 2026-04-26 16:10 | 0.51136 | 10.09252 | 15652 ft | 404 kts | 86° |
| 2026-04-26 16:10 | 0.51292 | 10.12049 | 16075 ft | 407 kts | 86° |
| 2026-04-26 16:11 | 0.51448 | 10.14861 | 16492 ft | 409 kts | 86° |
| 2026-04-26 16:11 | 0.51608 | 10.17718 | 16905 ft | 412 kts | 86° |
| 2026-04-26 16:11 | 0.51768 | 10.20593 | 17316 ft | 415 kts | 86° |
| 2026-04-26 16:11 | 0.51928 | 10.23477 | 17716 ft | 418 kts | 86° |
| 2026-04-26 16:12 | 0.52090 | 10.26390 | 18096 ft | 421 kts | 86° |
| 2026-04-26 16:12 | 0.52252 | 10.29295 | 18431 ft | 423 kts | 86° |
| 2026-04-26 16:12 | 0.52580 | 10.35181 | 19141 ft | 426 kts | 86° |
| 2026-04-26 16:13 | 0.52746 | 10.38169 | 19504 ft | 428 kts | 86° |
| 2026-04-26 16:13 | 0.52911 | 10.41134 | 19838 ft | 429 kts | 86° |
| 2026-04-26 16:13 | 0.53075 | 10.44094 | 20165 ft | 431 kts | 86° |
| 2026-04-26 16:13 | 0.53243 | 10.47112 | 20499 ft | 432 kts | 86° |
| 2026-04-26 16:14 | 0.53410 | 10.50111 | 20820 ft | 434 kts | 86° |
| 2026-04-26 16:14 | 0.53578 | 10.53120 | 21139 ft | 436 kts | 86° |
| 2026-04-26 16:14 | 0.53916 | 10.59205 | 21743 ft | 439 kts | 86° |
| 2026-04-26 16:15 | 0.54086 | 10.62249 | 22027 ft | 441 kts | 86° |
| 2026-04-26 16:15 | 0.54255 | 10.65288 | 22312 ft | 442 kts | 86° |
| 2026-04-26 16:15 | 0.54427 | 10.68376 | 22603 ft | 444 kts | 86° |
| 2026-04-26 16:16 | 0.54769 | 10.74532 | 23143 ft | 447 kts | 86° |
| 2026-04-26 16:16 | 0.54941 | 10.77629 | 23398 ft | 448 kts | 86° |
| 2026-04-26 16:16 | 0.55114 | 10.80737 | 23625 ft | 450 kts | 86° |
| 2026-04-26 16:16 | 0.55287 | 10.83852 | 23833 ft | 451 kts | 86° |
| 2026-04-26 16:17 | 0.55463 | 10.87019 | 24053 ft | 452 kts | 86° |
| 2026-04-26 16:17 | 0.55637 | 10.90151 | 24269 ft | 453 kts | 86° |
| 2026-04-26 16:17 | 0.55812 | 10.93302 | 24487 ft | 454 kts | 86° |
| 2026-04-26 16:17 | 0.55987 | 10.96448 | 24664 ft | 455 kts | 86° |
| 2026-04-26 16:18 | 0.56161 | 10.99583 | 24835 ft | 457 kts | 86° |
| 2026-04-26 16:18 | 0.56516 | 11.05964 | 25225 ft | 459 kts | 86° |
| 2026-04-26 16:19 | 0.56870 | 11.12333 | 25567 ft | 462 kts | 86° |
| 2026-04-26 16:19 | 0.57048 | 11.15533 | 25737 ft | 463 kts | 86° |
| 2026-04-26 16:19 | 0.57345 | 11.20884 | 26025 ft | 465 kts | 86° |
| 2026-04-26 16:20 | 0.57583 | 11.25182 | 26220 ft | 467 kts | 86° |
| 2026-04-26 16:20 | 0.57945 | 11.31703 | 26563 ft | 469 kts | 86° |
| 2026-04-26 16:20 | 0.58126 | 11.34951 | 26721 ft | 470 kts | 86° |
| 2026-04-26 16:21 | 0.58306 | 11.38199 | 26865 ft | 471 kts | 86° |
| 2026-04-26 16:21 | 0.58488 | 11.41473 | 27014 ft | 472 kts | 86° |
| 2026-04-26 16:21 | 0.58668 | 11.44723 | 27169 ft | 473 kts | 86° |
| 2026-04-26 16:21 | 0.58853 | 11.48056 | 27325 ft | 474 kts | 86° |
| 2026-04-26 16:22 | 0.59033 | 11.51300 | 27459 ft | 475 kts | 86° |
| 2026-04-26 16:22 | 0.59217 | 11.54631 | 27595 ft | 476 kts | 87° |
| 2026-04-26 16:22 | 0.59170 | 11.57930 | 27607 ft | 479 kts | 96° |
| 2026-04-26 16:22 | 0.58622 | 11.61198 | 27795 ft | 478 kts | 101° |
| 2026-04-26 16:23 | 0.57989 | 11.64423 | 28319 ft | 470 kts | 101° |
| 2026-04-26 16:23 | 0.57379 | 11.67643 | 28640 ft | 468 kts | 100° |
| 2026-04-26 16:23 | 0.56245 | 11.74109 | 28705 ft | 476 kts | 99° |
| 2026-04-26 16:24 | 0.55702 | 11.77364 | 28888 ft | 475 kts | 99° |
| 2026-04-26 16:24 | 0.55174 | 11.80568 | 29218 ft | 472 kts | 99° |
| 2026-04-26 16:24 | 0.54637 | 11.83828 | 29576 ft | 468 kts | 99° |
| 2026-04-26 16:24 | 0.54109 | 11.87030 | 29819 ft | 468 kts | 99° |
| 2026-04-26 16:25 | 0.53577 | 11.90236 | 29941 ft | 469 kts | 99° |
| 2026-04-26 16:25 | 0.53047 | 11.93431 | 30063 ft | 471 kts | 99° |
| 2026-04-26 16:25 | 0.52510 | 11.96664 | 30273 ft | 469 kts | 99° |
| 2026-04-26 16:25 | 0.51973 | 11.99893 | 30572 ft | 466 kts | 99° |
| 2026-04-26 16:26 | 0.51479 | 12.03059 | 30833 ft | 464 kts | 95° |
| 2026-04-26 16:26 | 0.51352 | 12.05198 | 30872 ft | 466 kts | 90° |
| 2026-04-26 16:26 | 0.51441 | 12.09514 | 31072 ft | 466 kts | 88° |
| 2026-04-26 16:26 | 0.51560 | 12.12731 | 31399 ft | 462 kts | 88° |
| 2026-04-26 16:27 | 0.51667 | 12.15922 | 31701 ft | 460 kts | 88° |
| 2026-04-26 16:27 | 0.51750 | 12.19112 | 31874 ft | 460 kts | 89° |
| 2026-04-26 16:27 | 0.51848 | 12.24500 | 32007 ft | 465 kts | 89° |
| 2026-04-26 16:28 | 0.51893 | 12.27717 | 32228 ft | 463 kts | 89° |
| 2026-04-26 16:28 | 0.51933 | 12.30949 | 32576 ft | 459 kts | 89° |
| 2026-04-26 16:28 | 0.51972 | 12.34088 | 32927 ft | 456 kts | 89° |
| 2026-04-26 16:28 | 0.52012 | 12.37243 | 33144 ft | 455 kts | 89° |
| 2026-04-26 16:29 | 0.52095 | 12.43613 | 33296 ft | 461 kts | 89° |
| 2026-04-26 16:29 | 0.52138 | 12.46851 | 33534 ft | 459 kts | 89° |
| 2026-04-26 16:29 | 0.52180 | 12.49990 | 33895 ft | 455 kts | 89° |
| 2026-04-26 16:30 | 0.52223 | 12.53162 | 34220 ft | 451 kts | 89° |
| 2026-04-26 16:30 | 0.52264 | 12.56289 | 34405 ft | 451 kts | 89° |
| 2026-04-26 16:30 | 0.52348 | 12.62581 | 34469 ft | 458 kts | 89° |
| 2026-04-26 16:31 | 0.52390 | 12.65775 | 34651 ft | 457 kts | 89° |
| 2026-04-26 16:31 | 0.52432 | 12.68942 | 34986 ft | 453 kts | 89° |
| 2026-04-26 16:31 | 0.52474 | 12.72071 | 35320 ft | 449 kts | 89° |
| 2026-04-26 16:31 | 0.52515 | 12.75176 | 35493 ft | 449 kts | 89° |
| 2026-04-26 16:32 | 0.52599 | 12.81467 | 35534 ft | 456 kts | 89° |
| 2026-04-26 16:32 | 0.52641 | 12.84635 | 35744 ft | 454 kts | 89° |
| 2026-04-26 16:32 | 0.52682 | 12.87764 | 36076 ft | 449 kts | 89° |
| 2026-04-26 16:33 | 0.52723 | 12.90864 | 36368 ft | 446 kts | 89° |
| 2026-04-26 16:33 | 0.52764 | 12.93961 | 36495 ft | 446 kts | 89° |
| 2026-04-26 16:33 | 0.52847 | 13.00199 | 36556 ft | 452 kts | 89° |
| 2026-04-26 16:34 | 0.52888 | 13.03336 | 36776 ft | 449 kts | 89° |
| 2026-04-26 16:34 | 0.52929 | 13.06422 | 37017 ft | 447 kts | 89° |
| 2026-04-26 16:34 | 0.52970 | 13.09536 | 36855 ft | 451 kts | 89° |
| 2026-04-26 16:34 | 0.53011 | 13.12655 | 36938 ft | 447 kts | 89° |
| 2026-04-26 16:35 | 0.53094 | 13.18884 | 36898 ft | 445 kts | 89° |
| 2026-04-26 16:35 | 0.53174 | 13.24998 | 36893 ft | 442 kts | 89° |
| 2026-04-26 16:36 | 0.53255 | 13.31142 | 36892 ft | 440 kts | 89° |
| 2026-04-26 16:36 | 0.53336 | 13.37238 | 36904 ft | 442 kts | 89° |
| 2026-04-26 16:37 | 0.53417 | 13.43410 | 36908 ft | 447 kts | 89° |
| 2026-04-26 16:37 | 0.53498 | 13.49609 | 36907 ft | 450 kts | 89° |
| 2026-04-26 16:38 | 0.53581 | 13.55878 | 36918 ft | 453 kts | 89° |
| 2026-04-26 16:38 | 0.53663 | 13.62170 | 36928 ft | 453 kts | 89° |
| 2026-04-26 16:39 | 0.53746 | 13.68460 | 36932 ft | 452 kts | 89° |
| 2026-04-26 16:39 | 0.53828 | 13.74729 | 36922 ft | 450 kts | 89° |
| 2026-04-26 16:40 | 0.53910 | 13.80970 | 36909 ft | 448 kts | 89° |
| 2026-04-26 16:40 | 0.53990 | 13.87144 | 36913 ft | 446 kts | 89° |
| 2026-04-26 16:41 | 0.54071 | 13.93334 | 36923 ft | 444 kts | 89° |
| 2026-04-26 16:41 | 0.54152 | 13.99500 | 36913 ft | 444 kts | 89° |
| 2026-04-26 16:42 | 0.54232 | 14.05660 | 36922 ft | 443 kts | 89° |
| 2026-04-26 16:42 | 0.54313 | 14.11814 | 36918 ft | 443 kts | 89° |
| 2026-04-26 16:43 | 0.54393 | 14.17982 | 36913 ft | 444 kts | 89° |
| 2026-04-26 16:43 | 0.54473 | 14.24122 | 36927 ft | 446 kts | 89° |
| 2026-04-26 16:44 | 0.54554 | 14.30330 | 36915 ft | 447 kts | 89° |
| 2026-04-26 16:44 | 0.54635 | 14.36556 | 36921 ft | 449 kts | 89° |
| 2026-04-26 16:45 | 0.54716 | 14.42802 | 36932 ft | 450 kts | 89° |
| 2026-04-26 16:45 | 0.54797 | 14.49067 | 36909 ft | 452 kts | 89° |
| 2026-04-26 16:46 | 0.54879 | 14.55347 | 36923 ft | 452 kts | 89° |
| 2026-04-26 16:46 | 0.54960 | 14.61631 | 36920 ft | 452 kts | 89° |
| 2026-04-26 16:47 | 0.55041 | 14.67879 | 36912 ft | 452 kts | 89° |
| 2026-04-26 16:47 | 0.55123 | 14.74158 | 36926 ft | 451 kts | 89° |
| 2026-04-26 16:48 | 0.55204 | 14.80426 | 36912 ft | 451 kts | 89° |
| 2026-04-26 16:48 | 0.55284 | 14.86678 | 36927 ft | 449 kts | 89° |
| 2026-04-26 16:49 | 0.55365 | 14.92916 | 36908 ft | 449 kts | 90° |
| 2026-04-26 16:49 | 0.55445 | 14.99144 | 36921 ft | 448 kts | 90° |
| 2026-04-26 16:50 | 0.55525 | 15.05360 | 36924 ft | 447 kts | 90° |
| 2026-04-26 16:50 | 0.55605 | 15.11569 | 36913 ft | 447 kts | 90° |
| 2026-04-26 16:51 | 0.55685 | 15.17775 | 36920 ft | 446 kts | 90° |
| 2026-04-26 16:51 | 0.55765 | 15.23984 | 36923 ft | 446 kts | 90° |
| 2026-04-26 16:52 | 0.55831 | 15.29138 | 36913 ft | 447 kts | 90° |
| 2026-04-26 16:52 | 0.55925 | 15.36404 | 36926 ft | 447 kts | 90° |
| 2026-04-26 16:53 | 0.56004 | 15.42571 | 36924 ft | 448 kts | 90° |
| 2026-04-26 16:53 | 0.56083 | 15.48802 | 36917 ft | 448 kts | 90° |
| 2026-04-26 16:54 | 0.56163 | 15.55032 | 36924 ft | 449 kts | 90° |
| 2026-04-26 16:54 | 0.56243 | 15.61267 | 36922 ft | 449 kts | 90° |
| 2026-04-26 16:55 | 0.56323 | 15.67513 | 36912 ft | 450 kts | 90° |
| 2026-04-26 16:55 | 0.56403 | 15.73764 | 36922 ft | 450 kts | 90° |
| 2026-04-26 16:56 | 0.56522 | 15.83132 | 36914 ft | 450 kts | 90° |
| 2026-04-26 16:57 | 0.56602 | 15.89376 | 36919 ft | 449 kts | 90° |
| 2026-04-26 16:57 | 0.56721 | 15.98722 | 36915 ft | 449 kts | 90° |
| 2026-04-26 16:58 | 0.56787 | 16.03905 | 36912 ft | 448 kts | 90° |
| 2026-04-26 16:59 | 0.56919 | 16.14288 | 36920 ft | 448 kts | 90° |
| 2026-04-26 17:00 | 0.57076 | 16.26702 | 36921 ft | 447 kts | 90° |
| 2026-04-26 17:00 | 0.57195 | 16.36045 | 36917 ft | 447 kts | 90° |
| 2026-04-26 17:01 | 0.57273 | 16.42218 | 36918 ft | 447 kts | 90° |
| 2026-04-26 17:01 | 0.57351 | 16.48408 | 36925 ft | 446 kts | 90° |
| 2026-04-26 17:02 | 0.57430 | 16.54635 | 36920 ft | 447 kts | 90° |
| 2026-04-26 17:02 | 0.57508 | 16.60823 | 36917 ft | 447 kts | 90° |
| 2026-04-26 17:03 | 0.57586 | 16.67028 | 36934 ft | 447 kts | 90° |
| 2026-04-26 17:03 | 0.57665 | 16.73277 | 36917 ft | 448 kts | 90° |
| 2026-04-26 17:04 | 0.57743 | 16.79483 | 36917 ft | 448 kts | 90° |
| 2026-04-26 17:04 | 0.57821 | 16.85715 | 36925 ft | 448 kts | 90° |
| 2026-04-26 17:05 | 0.57899 | 16.91908 | 36918 ft | 448 kts | 90° |
| 2026-04-26 17:05 | 0.57978 | 16.98164 | 36915 ft | 449 kts | 90° |
| 2026-04-26 17:06 | 0.58056 | 17.04370 | 36929 ft | 448 kts | 90° |
| 2026-04-26 17:06 | 0.58134 | 17.10640 | 36918 ft | 449 kts | 90° |
| 2026-04-26 17:07 | 0.58212 | 17.16854 | 36919 ft | 449 kts | 90° |
| 2026-04-26 17:07 | 0.58290 | 17.23090 | 36928 ft | 448 kts | 90° |
| 2026-04-26 17:08 | 0.58367 | 17.29282 | 36919 ft | 448 kts | 90° |
| 2026-04-26 17:08 | 0.58445 | 17.35510 | 36917 ft | 448 kts | 90° |
| 2026-04-26 17:09 | 0.58510 | 17.40678 | 36925 ft | 447 kts | 90° |
| 2026-04-26 17:09 | 0.58600 | 17.47935 | 36917 ft | 447 kts | 90° |
| 2026-04-26 17:10 | 0.58677 | 17.54131 | 36922 ft | 447 kts | 90° |
| 2026-04-26 17:10 | 0.58755 | 17.60333 | 36927 ft | 446 kts | 90° |
| 2026-04-26 17:11 | 0.58831 | 17.66519 | 36915 ft | 446 kts | 90° |
| 2026-04-26 17:11 | 0.58908 | 17.72721 | 36920 ft | 445 kts | 90° |
| 2026-04-26 17:12 | 0.59024 | 17.81999 | 36917 ft | 445 kts | 90° |
| 2026-04-26 17:13 | 0.59135 | 17.91284 | 36924 ft | 445 kts | 90° |
| 2026-04-26 17:14 | 0.59215 | 18.00526 | 36919 ft | 445 kts | 90° |
| 2026-04-26 17:14 | 0.59296 | 18.09818 | 36927 ft | 445 kts | 90° |
| 2026-04-26 17:15 | 0.59397 | 18.19037 | 36916 ft | 445 kts | 89° |
| 2026-04-26 17:16 | 0.59492 | 18.25231 | 36921 ft | 446 kts | 89° |
| 2026-04-26 17:16 | 0.59585 | 18.31420 | 36930 ft | 446 kts | 89° |
| 2026-04-26 17:17 | 0.59676 | 18.37641 | 36918 ft | 446 kts | 89° |
| 2026-04-26 17:17 | 0.59765 | 18.43832 | 36917 ft | 446 kts | 90° |
| 2026-04-26 17:18 | 0.59854 | 18.50020 | 36912 ft | 445 kts | 90° |
| 2026-04-26 17:18 | 0.59941 | 18.56189 | 36934 ft | 444 kts | 90° |
| 2026-04-26 17:19 | 0.60052 | 18.65419 | 36930 ft | 441 kts | 90° |
| 2026-04-26 17:19 | 0.60126 | 18.71543 | 36922 ft | 440 kts | 90° |
| 2026-04-26 17:20 | 0.60176 | 18.75593 | 36925 ft | 439 kts | 90° |
| 2026-04-26 17:20 | 0.60276 | 18.83716 | 36930 ft | 438 kts | 90° |
| 2026-04-26 17:21 | 0.60338 | 18.88793 | 36906 ft | 438 kts | 90° |
| 2026-04-26 17:21 | 0.60412 | 18.94889 | 36928 ft | 437 kts | 90° |
| 2026-04-26 17:22 | 0.60486 | 19.00971 | 36908 ft | 438 kts | 90° |
| 2026-04-26 17:22 | 0.60557 | 19.07026 | 36929 ft | 438 kts | 90° |
| 2026-04-26 17:23 | 0.60628 | 19.13148 | 36910 ft | 440 kts | 90° |
| 2026-04-26 17:23 | 0.60699 | 19.19237 | 36926 ft | 440 kts | 90° |
| 2026-04-26 17:24 | 0.60770 | 19.25388 | 36915 ft | 442 kts | 90° |
| 2026-04-26 17:24 | 0.60841 | 19.31507 | 36918 ft | 442 kts | 90° |
| 2026-04-26 17:25 | 0.60913 | 19.37679 | 36922 ft | 443 kts | 90° |
| 2026-04-26 17:25 | 0.60984 | 19.43840 | 36901 ft | 444 kts | 90° |
| 2026-04-26 17:26 | 0.61056 | 19.49986 | 36923 ft | 444 kts | 90° |
| 2026-04-26 17:26 | 0.61127 | 19.56136 | 36905 ft | 445 kts | 90° |
| 2026-04-26 17:27 | 0.61199 | 19.62340 | 36912 ft | 444 kts | 90° |
| 2026-04-26 17:27 | 0.61270 | 19.68481 | 36915 ft | 444 kts | 90° |
| 2026-04-26 17:28 | 0.61341 | 19.74672 | 36905 ft | 444 kts | 90° |
| 2026-04-26 17:28 | 0.61412 | 19.80815 | 36910 ft | 444 kts | 90° |
| 2026-04-26 17:29 | 0.61471 | 19.85979 | 36915 ft | 443 kts | 90° |
| 2026-04-26 17:29 | 0.61554 | 19.93151 | 36904 ft | 443 kts | 90° |
| 2026-04-26 17:30 | 0.61624 | 19.99294 | 36918 ft | 443 kts | 90° |
| 2026-04-26 17:30 | 0.61695 | 20.05452 | 36910 ft | 443 kts | 90° |
| 2026-04-26 17:31 | 0.61765 | 20.11575 | 36909 ft | 443 kts | 90° |
| 2026-04-26 17:31 | 0.61836 | 20.17729 | 36915 ft | 442 kts | 90° |
| 2026-04-26 17:32 | 0.61906 | 20.23905 | 36904 ft | 443 kts | 90° |
| 2026-04-26 17:32 | 0.61977 | 20.30039 | 36910 ft | 443 kts | 90° |
| 2026-04-26 17:33 | 0.62047 | 20.36171 | 36908 ft | 443 kts | 90° |
| 2026-04-26 17:34 | 0.62152 | 20.45428 | 36907 ft | 443 kts | 90° |
| 2026-04-26 17:34 | 0.62222 | 20.51570 | 36916 ft | 443 kts | 90° |
| 2026-04-26 17:35 | 0.62292 | 20.57716 | 36903 ft | 444 kts | 90° |
| 2026-04-26 17:35 | 0.62364 | 20.63905 | 36906 ft | 444 kts | 90° |
| 2026-04-26 17:36 | 0.62439 | 20.70027 | 36915 ft | 444 kts | 90° |
| 2026-04-26 17:36 | 0.62517 | 20.76207 | 36906 ft | 444 kts | 90° |
| 2026-04-26 17:37 | 0.62593 | 20.82370 | 36913 ft | 444 kts | 90° |
| 2026-04-26 17:37 | 0.62669 | 20.88534 | 36911 ft | 444 kts | 90° |
| 2026-04-26 17:38 | 0.62783 | 20.97789 | 36913 ft | 443 kts | 90° |
| 2026-04-26 17:38 | 0.62858 | 21.03905 | 36913 ft | 443 kts | 90° |
| 2026-04-26 17:39 | 0.62934 | 21.10063 | 36903 ft | 443 kts | 90° |
| 2026-04-26 17:39 | 0.63009 | 21.16215 | 36912 ft | 443 kts | 90° |
| 2026-04-26 17:40 | 0.63072 | 21.21339 | 36917 ft | 442 kts | 90° |
| 2026-04-26 17:40 | 0.63160 | 21.28539 | 36904 ft | 442 kts | 90° |
| 2026-04-26 17:41 | 0.63235 | 21.34651 | 36916 ft | 442 kts | 90° |
| 2026-04-26 17:41 | 0.63310 | 21.40806 | 36913 ft | 442 kts | 90° |
| 2026-04-26 17:42 | 0.63385 | 21.46942 | 36904 ft | 441 kts | 90° |
| 2026-04-26 17:42 | 0.63459 | 21.53057 | 36919 ft | 441 kts | 90° |
| 2026-04-26 17:43 | 0.63534 | 21.59156 | 36917 ft | 441 kts | 89° |
| 2026-04-26 17:43 | 0.63608 | 21.65298 | 36911 ft | 441 kts | 89° |
| 2026-04-26 17:44 | 0.63683 | 21.71409 | 36921 ft | 441 kts | 89° |
| 2026-04-26 17:44 | 0.63757 | 21.77514 | 36916 ft | 441 kts | 89° |
| 2026-04-26 17:45 | 0.63831 | 21.83664 | 36915 ft | 441 kts | 89° |
| 2026-04-26 17:45 | 0.63906 | 21.89790 | 36924 ft | 441 kts | 89° |
| 2026-04-26 17:46 | 0.63980 | 21.95916 | 36917 ft | 441 kts | 89° |
| 2026-04-26 17:46 | 0.64054 | 22.02014 | 36925 ft | 441 kts | 89° |
| 2026-04-26 17:47 | 0.64115 | 22.07095 | 36928 ft | 441 kts | 89° |
| 2026-04-26 17:47 | 0.64201 | 22.14258 | 36920 ft | 442 kts | 89° |
| 2026-04-26 17:48 | 0.64276 | 22.20430 | 36924 ft | 442 kts | 89° |
| 2026-04-26 17:48 | 0.64350 | 22.26563 | 36921 ft | 442 kts | 89° |
| 2026-04-26 17:49 | 0.64369 | 22.32711 | 36912 ft | 443 kts | 92° |
| 2026-04-26 17:49 | 0.64088 | 22.38828 | 36937 ft | 442 kts | 93° |
| 2026-04-26 17:50 | 0.63735 | 22.44973 | 36915 ft | 443 kts | 93° |
| 2026-04-26 17:50 | 0.63403 | 22.51145 | 36935 ft | 443 kts | 93° |
| 2026-04-26 17:51 | 0.63095 | 22.57268 | 36925 ft | 444 kts | 93° |
| 2026-04-26 17:51 | 0.62792 | 22.63465 | 36930 ft | 444 kts | 93° |
| 2026-04-26 17:52 | 0.62493 | 22.69580 | 36937 ft | 444 kts | 93° |
| 2026-04-26 17:52 | 0.62191 | 22.75750 | 36924 ft | 445 kts | 93° |
| 2026-04-26 17:53 | 0.61889 | 22.81928 | 36944 ft | 445 kts | 92° |
| 2026-04-26 17:54 | 0.61433 | 22.91230 | 36940 ft | 445 kts | 92° |
| 2026-04-26 17:54 | 0.61130 | 22.97407 | 36931 ft | 446 kts | 92° |
| 2026-04-26 17:55 | 0.60826 | 23.03601 | 36935 ft | 446 kts | 92° |
| 2026-04-26 17:55 | 0.60522 | 23.09793 | 36938 ft | 446 kts | 92° |
| 2026-04-26 17:56 | 0.60218 | 23.15994 | 36930 ft | 447 kts | 92° |
| 2026-04-26 17:57 | 0.59609 | 23.28401 | 36943 ft | 447 kts | 92° |
| 2026-04-26 17:57 | 0.59304 | 23.34611 | 36929 ft | 448 kts | 92° |
| 2026-04-26 17:58 | 0.58694 | 23.47019 | 36938 ft | 448 kts | 92° |
| 2026-04-26 17:59 | 0.58237 | 23.56321 | 36933 ft | 448 kts | 92° |
| 2026-04-26 17:59 | 0.57932 | 23.62519 | 36942 ft | 447 kts | 92° |
| 2026-04-26 18:00 | 0.57625 | 23.68766 | 36928 ft | 448 kts | 92° |
| 2026-04-26 18:00 | 0.57321 | 23.74946 | 36936 ft | 447 kts | 92° |
| 2026-04-26 18:01 | 0.57015 | 23.81169 | 36937 ft | 447 kts | 92° |
| 2026-04-26 18:01 | 0.56710 | 23.87358 | 36928 ft | 447 kts | 92° |
| 2026-04-26 18:02 | 0.56507 | 23.91494 | 36937 ft | 447 kts | 92° |
| 2026-04-26 18:02 | 0.56101 | 23.99738 | 36932 ft | 447 kts | 92° |
| 2026-04-26 18:03 | 0.55795 | 24.05954 | 36934 ft | 446 kts | 92° |
| 2026-04-26 18:03 | 0.55490 | 24.12135 | 36945 ft | 446 kts | 92° |
| 2026-04-26 18:04 | 0.55186 | 24.18322 | 36929 ft | 447 kts | 92° |
| 2026-04-26 18:05 | 0.54727 | 24.27625 | 36941 ft | 447 kts | 92° |
| 2026-04-26 18:05 | 0.54419 | 24.33873 | 36933 ft | 448 kts | 92° |
| 2026-04-26 18:06 | 0.54115 | 24.40050 | 36935 ft | 448 kts | 92° |
| 2026-04-26 18:06 | 0.53808 | 24.46276 | 36944 ft | 449 kts | 92° |
| 2026-04-26 18:07 | 0.53499 | 24.52541 | 36938 ft | 450 kts | 91° |
| 2026-04-26 18:07 | 0.53191 | 24.58786 | 36939 ft | 450 kts | 91° |
| 2026-04-26 18:08 | 0.52883 | 24.65022 | 36946 ft | 450 kts | 91° |
| 2026-04-26 18:08 | 0.52576 | 24.71256 | 36942 ft | 451 kts | 91° |
| 2026-04-26 18:09 | 0.52268 | 24.77498 | 36947 ft | 450 kts | 91° |
| 2026-04-26 18:09 | 0.51959 | 24.83751 | 36953 ft | 450 kts | 91° |
| 2026-04-26 18:10 | 0.51701 | 24.88973 | 36942 ft | 450 kts | 91° |
| 2026-04-26 18:10 | 0.51342 | 24.96249 | 36952 ft | 449 kts | 91° |
| 2026-04-26 18:11 | 0.51035 | 25.02454 | 36952 ft | 449 kts | 91° |
| 2026-04-26 18:11 | 0.50778 | 25.07669 | 36942 ft | 448 kts | 91° |
| 2026-04-26 18:12 | 0.50470 | 25.13887 | 36950 ft | 448 kts | 91° |
| 2026-04-26 18:12 | 0.50164 | 25.20097 | 36953 ft | 447 kts | 91° |
| 2026-04-26 18:13 | 0.49858 | 25.26282 | 36946 ft | 447 kts | 91° |
| 2026-04-26 18:13 | 0.48861 | 25.32421 | 36955 ft | 449 kts | 107° |
| 2026-04-26 18:14 | 0.46188 | 25.38064 | 37032 ft | 449 kts | 118° |
| 2026-04-26 18:14 | 0.43079 | 25.43455 | 36974 ft | 452 kts | 118° |
| 2026-04-26 18:15 | 0.39973 | 25.48922 | 36950 ft | 454 kts | 117° |
| 2026-04-26 18:15 | 0.36877 | 25.54433 | 36941 ft | 456 kts | 117° |
| 2026-04-26 18:16 | 0.33783 | 25.59960 | 36945 ft | 457 kts | 117° |
| 2026-04-26 18:16 | 0.29126 | 25.68275 | 36965 ft | 457 kts | 117° |
| 2026-04-26 18:17 | 0.26012 | 25.73833 | 36965 ft | 458 kts | 117° |
| 2026-04-26 18:17 | 0.22903 | 25.79380 | 36954 ft | 458 kts | 117° |
| 2026-04-26 18:18 | 0.19795 | 25.84926 | 36966 ft | 457 kts | 117° |
| 2026-04-26 18:18 | 0.16692 | 25.90464 | 36952 ft | 456 kts | 117° |
| 2026-04-26 18:19 | 0.13595 | 25.95992 | 36956 ft | 455 kts | 117° |
| 2026-04-26 18:19 | 0.10505 | 26.01509 | 36961 ft | 454 kts | 117° |
| 2026-04-26 18:20 | 0.07422 | 26.07010 | 36959 ft | 454 kts | 117° |
| 2026-04-26 18:20 | 0.04872 | 26.11582 | 36967 ft | 453 kts | 117° |
| 2026-04-26 18:21 | 0.01301 | 26.18006 | 36965 ft | 452 kts | 117° |
| 2026-04-26 18:21 | -0.01752 | 26.23501 | 36968 ft | 452 kts | 117° |
| 2026-04-26 18:22 | -0.04802 | 26.28987 | 36970 ft | 451 kts | 117° |
| 2026-04-26 18:22 | -0.07850 | 26.34468 | 36967 ft | 451 kts | 117° |
| 2026-04-26 18:23 | -0.10879 | 26.39915 | 36966 ft | 451 kts | 117° |
| 2026-04-26 18:23 | -0.13924 | 26.45390 | 36963 ft | 451 kts | 117° |
| 2026-04-26 18:24 | -0.16987 | 26.50900 | 36977 ft | 450 kts | 117° |
| 2026-04-26 18:24 | -0.20023 | 26.56359 | 36964 ft | 450 kts | 117° |
| 2026-04-26 18:25 | -0.23043 | 26.61791 | 36967 ft | 450 kts | 117° |
| 2026-04-26 18:25 | -0.26078 | 26.67248 | 36978 ft | 449 kts | 117° |
| 2026-04-26 18:26 | -0.29109 | 26.72699 | 36968 ft | 449 kts | 117° |
| 2026-04-26 18:26 | -0.32138 | 26.78146 | 36978 ft | 448 kts | 117° |
| 2026-04-26 18:27 | -0.35160 | 26.83582 | 36978 ft | 447 kts | 117° |
| 2026-04-26 18:27 | -0.38185 | 26.89022 | 36971 ft | 447 kts | 117° |
| 2026-04-26 18:28 | -0.41200 | 26.94445 | 36988 ft | 446 kts | 117° |
| 2026-04-26 18:28 | -0.44217 | 26.99871 | 36980 ft | 446 kts | 117° |
| 2026-04-26 18:29 | -0.47234 | 27.05296 | 36987 ft | 446 kts | 117° |
| 2026-04-26 18:29 | -0.50244 | 27.10710 | 36986 ft | 446 kts | 117° |
| 2026-04-26 18:30 | -0.53259 | 27.16134 | 36984 ft | 447 kts | 117° |
| 2026-04-26 18:30 | -0.56272 | 27.21552 | 37000 ft | 447 kts | 117° |
| 2026-04-26 18:31 | -0.59300 | 27.27000 | 36984 ft | 448 kts | 117° |
| 2026-04-26 18:31 | -0.62319 | 27.32430 | 37003 ft | 449 kts | 117° |
| 2026-04-26 18:32 | -0.65350 | 27.37883 | 36979 ft | 451 kts | 117° |
| 2026-04-26 18:32 | -0.68402 | 27.43374 | 37003 ft | 451 kts | 117° |
| 2026-04-26 18:33 | -0.71461 | 27.48877 | 36994 ft | 452 kts | 117° |
| 2026-04-26 18:33 | -0.74506 | 27.54355 | 37008 ft | 452 kts | 117° |
| 2026-04-26 18:34 | -0.77558 | 27.59846 | 36985 ft | 453 kts | 117° |
| 2026-04-26 18:34 | -0.80625 | 27.65364 | 36998 ft | 453 kts | 117° |
| 2026-04-26 18:35 | -0.83685 | 27.70870 | 36990 ft | 453 kts | 117° |
| 2026-04-26 18:35 | -0.86735 | 27.76358 | 36991 ft | 452 kts | 117° |
| 2026-04-26 18:36 | -0.89777 | 27.81831 | 36996 ft | 451 kts | 117° |
| 2026-04-26 18:36 | -0.92839 | 27.87340 | 36996 ft | 451 kts | 117° |
| 2026-04-26 18:37 | -0.95882 | 27.92817 | 36998 ft | 450 kts | 117° |
| 2026-04-26 18:37 | -0.98896 | 27.98241 | 37011 ft | 449 kts | 117° |
| 2026-04-26 18:38 | -1.01928 | 28.03699 | 37003 ft | 449 kts | 117° |
| 2026-04-26 18:38 | -1.04952 | 28.09142 | 37019 ft | 448 kts | 117° |
| 2026-04-26 18:39 | -1.07978 | 28.14589 | 37013 ft | 447 kts | 117° |
| 2026-04-26 18:39 | -1.10999 | 28.20028 | 37027 ft | 447 kts | 117° |
| 2026-04-26 18:40 | -1.14005 | 28.25442 | 37053 ft | 447 kts | 117° |
| 2026-04-26 18:40 | -1.17022 | 28.30871 | 37044 ft | 447 kts | 117° |
| 2026-04-26 18:41 | -1.20052 | 28.36322 | 37049 ft | 448 kts | 117° |
| 2026-04-26 18:41 | -1.23067 | 28.41747 | 37082 ft | 448 kts | 117° |
| 2026-04-26 18:42 | -1.26109 | 28.47223 | 37089 ft | 450 kts | 117° |
| 2026-04-26 18:42 | -1.29154 | 28.52707 | 37080 ft | 451 kts | 117° |
| 2026-04-26 18:43 | -1.32201 | 28.58197 | 37105 ft | 452 kts | 117° |
| 2026-04-26 18:43 | -1.35237 | 28.63669 | 37120 ft | 453 kts | 117° |
| 2026-04-26 18:44 | -1.38285 | 28.69160 | 37113 ft | 453 kts | 117° |
| 2026-04-26 18:44 | -1.41356 | 28.74695 | 37144 ft | 453 kts | 117° |
| 2026-04-26 18:45 | -1.44397 | 28.80177 | 37131 ft | 454 kts | 117° |
| 2026-04-26 18:45 | -1.47458 | 28.85694 | 37147 ft | 453 kts | 117° |
| 2026-04-26 18:46 | -1.50510 | 28.91198 | 37161 ft | 452 kts | 117° |
| 2026-04-26 18:46 | -1.52036 | 28.93951 | 36776 ft | 457 kts | 117° |
| 2026-04-26 18:46 | -1.53597 | 28.96766 | 36091 ft | 459 kts | 117° |
| 2026-04-26 18:47 | -1.55126 | 28.99520 | 35665 ft | 453 kts | 117° |
| 2026-04-26 18:47 | -1.56580 | 29.02182 | 34711 ft | 463 kts | 116° |
| 2026-04-26 18:47 | -1.58059 | 29.05017 | 34101 ft | 462 kts | 115° |
| 2026-04-26 18:47 | -1.59536 | 29.07902 | 33087 ft | 469 kts | 115° |
| 2026-04-26 18:48 | -1.61007 | 29.10780 | 32480 ft | 464 kts | 116° |
| 2026-04-26 18:48 | -1.62494 | 29.13676 | 31707 ft | 467 kts | 116° |
| 2026-04-26 18:48 | -1.63977 | 29.16550 | 30771 ft | 471 kts | 116° |
| 2026-04-26 18:48 | -1.65474 | 29.19441 | 30489 ft | 461 kts | 116° |
| 2026-04-26 18:49 | -1.66960 | 29.22309 | 29707 ft | 461 kts | 116° |
| 2026-04-26 18:49 | -1.68335 | 29.25166 | 28950 ft | 459 kts | 110° |
| 2026-04-26 18:49 | -1.69286 | 29.28193 | 28522 ft | 451 kts | 105° |
| 2026-04-26 18:49 | -1.70174 | 29.31205 | 27769 ft | 451 kts | 106° |
| 2026-04-26 18:50 | -1.71094 | 29.34178 | 27185 ft | 447 kts | 107° |
| 2026-04-26 18:50 | -1.72031 | 29.37123 | 26774 ft | 441 kts | 107° |
| 2026-04-26 18:50 | -1.72966 | 29.40036 | 26128 ft | 440 kts | 107° |
| 2026-04-26 18:50 | -1.73896 | 29.42932 | 25631 ft | 436 kts | 107° |
| 2026-04-26 18:51 | -1.74819 | 29.45814 | 25095 ft | 433 kts | 107° |
| 2026-04-26 18:51 | -1.75710 | 29.48681 | 24541 ft | 432 kts | 104° |
| 2026-04-26 18:51 | -1.76391 | 29.51600 | 24024 ft | 429 kts | 101° |
| 2026-04-26 18:51 | -1.76932 | 29.54527 | 23398 ft | 428 kts | 99° |
| 2026-04-26 18:52 | -1.77429 | 29.57444 | 22850 ft | 424 kts | 99° |
| 2026-04-26 18:52 | -1.77756 | 29.59369 | 22482 ft | 422 kts | 99° |
| 2026-04-26 18:52 | -1.78431 | 29.63212 | 21763 ft | 418 kts | 100° |
| 2026-04-26 18:52 | -1.78950 | 29.66055 | 21247 ft | 415 kts | 100° |
| 2026-04-26 18:53 | -1.79477 | 29.68880 | 20724 ft | 412 kts | 100° |
| 2026-04-26 18:53 | -1.80007 | 29.71683 | 20213 ft | 409 kts | 101° |
| 2026-04-26 18:53 | -1.80537 | 29.74466 | 19692 ft | 407 kts | 101° |
| 2026-04-26 18:53 | -1.81066 | 29.77239 | 19170 ft | 405 kts | 101° |
| 2026-04-26 18:54 | -1.81592 | 29.79998 | 18638 ft | 404 kts | 101° |
| 2026-04-26 18:54 | -1.82117 | 29.82749 | 18078 ft | 402 kts | 101° |
| 2026-04-26 18:54 | -1.82637 | 29.85482 | 17535 ft | 399 kts | 101° |
| 2026-04-26 18:54 | -1.83147 | 29.88160 | 17025 ft | 396 kts | 101° |
| 2026-04-26 18:55 | -1.83659 | 29.90846 | 16516 ft | 392 kts | 101° |
| 2026-04-26 18:55 | -1.84167 | 29.93515 | 16015 ft | 389 kts | 101° |
| 2026-04-26 18:55 | -1.84670 | 29.96162 | 15522 ft | 386 kts | 101° |
| 2026-04-26 18:55 | -1.85170 | 29.98787 | 15038 ft | 384 kts | 101° |
| 2026-04-26 18:56 | -1.85668 | 30.01406 | 14527 ft | 382 kts | 101° |
| 2026-04-26 18:56 | -1.86164 | 30.04011 | 14036 ft | 380 kts | 101° |
| 2026-04-26 18:56 | -1.86657 | 30.06603 | 13499 ft | 378 kts | 101° |
| 2026-04-26 18:56 | -1.87146 | 30.09176 | 13002 ft | 376 kts | 101° |
| 2026-04-26 18:57 | -1.87632 | 30.11732 | 12530 ft | 372 kts | 101° |
| 2026-04-26 18:57 | -1.87794 | 30.12587 | 12504 ft | 367 kts | 101° |
| 2026-04-26 18:57 | -1.88562 | 30.16627 | 12238 ft | 343 kts | 101° |
| 2026-04-26 18:57 | -1.88883 | 30.18919 | 12207 ft | 318 kts | 96° |
| 2026-04-26 18:58 | -1.89006 | 30.20322 | 12438 ft | 293 kts | 95° |
| 2026-04-26 18:58 | -1.89169 | 30.22271 | 12293 ft | 272 kts | 95° |
| 2026-04-26 18:58 | -1.89329 | 30.24083 | 12201 ft | 251 kts | 96° |
| 2026-04-26 18:58 | -1.89485 | 30.25764 | 12074 ft | 233 kts | 96° |
| 2026-04-26 18:59 | -1.89633 | 30.27310 | 11969 ft | 215 kts | 96° |
| 2026-04-26 18:59 | -1.89771 | 30.28745 | 11779 ft | 202 kts | 96° |
| 2026-04-26 18:59 | -1.89907 | 30.30137 | 11392 ft | 201 kts | 96° |
| 2026-04-26 18:59 | -1.90042 | 30.31525 | 10992 ft | 201 kts | 96° |
| 2026-04-26 19:00 | -1.90300 | 30.32865 | 10584 ft | 200 kts | 117° |
| 2026-04-26 19:00 | -1.91277 | 30.33818 | 10163 ft | 199 kts | 157° |
| 2026-04-26 19:00 | -1.92621 | 30.34012 | 9769 ft | 198 kts | 188° |
| 2026-04-26 19:00 | -1.93923 | 30.33580 | 9403 ft | 196 kts | 201° |
| 2026-04-26 19:01 | -1.95187 | 30.33080 | 8998 ft | 196 kts | 199° |
| 2026-04-26 19:01 | -1.96458 | 30.32590 | 8632 ft | 195 kts | 200° |
| 2026-04-26 19:01 | -1.97716 | 30.32102 | 8283 ft | 193 kts | 200° |
| 2026-04-26 19:01 | -1.98895 | 30.31480 | 7904 ft | 194 kts | 224° |
| 2026-04-26 19:02 | -1.99365 | 30.30289 | 7789 ft | 189 kts | 270° |
| 2026-04-26 19:02 | -1.99227 | 30.28939 | 7552 ft | 196 kts | 273° |
| 2026-04-26 19:02 | -1.99149 | 30.27649 | 7320 ft | 179 kts | 271° |
| 2026-04-26 19:02 | -1.99077 | 30.26856 | 7196 ft | 170 kts | 275° |
| 2026-04-26 19:03 | -1.98843 | 30.25317 | 6917 ft | 165 kts | 277° |
| 2026-04-26 19:03 | -1.98646 | 30.24177 | 6699 ft | 167 kts | 278° |
| 2026-04-26 19:03 | -1.98448 | 30.23039 | 6487 ft | 165 kts | 278° |
| 2026-04-26 19:03 | -1.98252 | 30.21913 | 6273 ft | 164 kts | 278° |
| 2026-04-26 19:04 | -1.98057 | 30.20794 | 6071 ft | 163 kts | 278° |
| 2026-04-26 19:04 | -1.97865 | 30.19691 | 5829 ft | 162 kts | 278° |
| 2026-04-26 19:04 | -1.97675 | 30.18597 | 5584 ft | 157 kts | 279° |
| 2026-04-26 19:04 | -1.97489 | 30.17531 | 5366 ft | 156 kts | 279° |
| 2026-04-26 19:05 | -1.97131 | 30.15431 | 4901 ft | 144 kts | 279° |
| 2026-04-26 19:05 | -1.96973 | 30.14552 | 4882 ft | 100 kts | 280° |
| 2026-04-26 19:05 | -1.96934 | 30.14300 | 4884 ft | 16 kts | 257° |
| 2026-04-26 19:06 | -1.97012 | 30.14270 | 4884 ft | 0 kts | 180° |